Time;durP1;ratioP1;P1;durP2;ratioP2;P2;SDS_P1;SDS_P2;PMS_P1;PMS_P2;Temp;Humidity;BMP_temperature;BMP_pressure;BME280_temperature;BME280_humidity;BME280_pressure;Samples;Min_cycle;Max_cycle;Signal;HPM_P1;HPM_P2
2023/06/24 00:01:53;;;;;;;6.57;3.67;;;;;;;17.69;87.05;100582.06;12183872;19;20010;-79
2023/06/24 00:06:05;;;;;;;7.65;4.13;;;;;;;17.69;87.78;100594.06;12205577;19;20038;-79
2023/06/24 00:10:19;;;;;;;8.55;4.20;;;;;;;17.69;87.98;100594.06;12188855;19;20071;-80
2023/06/24 00:14:23;;;;;;;7.68;4.10;;;;;;;17.65;88.75;100587.38;12212009;19;20006;-79
2023/06/24 00:18:29;;;;;;;5.55;3.80;;;;;;;17.64;88.85;100593.22;12209163;19;20119;-79
2023/06/24 00:22:31;;;;;;;6.20;3.80;;;;;;;17.61;88.99;100590.97;12188272;19;20032;-80
2023/06/24 00:26:32;;;;;;;7.20;4.43;;;;;;;17.48;88.35;100600.72;12210686;19;20506;-80
2023/06/24 00:30:34;;;;;;;9.40;4.23;;;;;;;17.36;89.75;100597.38;12212550;19;20014;-80
2023/06/24 00:34:37;;;;;;;6.65;3.97;;;;;;;17.29;91.53;100601.25;12188897;19;20350;-79
2023/06/24 00:38:39;;;;;;;7.82;4.47;;;;;;;17.26;91.70;100587.06;12213113;19;20457;-80
2023/06/24 00:42:45;;;;;;;7.47;4.15;;;;;;;17.23;92.00;100591.22;12213948;19;20003;-80
2023/06/24 00:46:49;;;;;;;7.03;4.07;;;;;;;17.21;92.69;100596.22;12194318;19;20011;-80
2023/06/24 00:50:51;;;;;;;5.72;3.88;;;;;;;17.18;92.59;100591.22;12214117;19;20011;-80
2023/06/24 00:54:53;;;;;;;10.47;3.73;;;;;;;17.16;92.70;100589.81;12217571;19;20018;-79
2023/06/24 00:58:57;;;;;;;;;;;;;;;17.14;93.30;100600.41;12197055;19;20100;-81
2023/06/24 01:02:59;;;;;;;;;;;;;;;17.13;93.47;100601.50;12223696;19;20381;-80
2023/06/24 01:07:01;;;;;;;5.38;3.78;;;;;;;17.13;93.06;100602.31;12204471;19;20282;-80
2023/06/24 01:11:03;;;;;;;6.35;3.47;;;;;;;17.13;93.13;100593.97;12222034;19;20125;-80
2023/06/24 01:15:10;;;;;;;5.30;3.50;;;;;;;17.14;93.65;100600.41;12226187;19;20801;-81
2023/06/24 01:19:50;;;;;;;8.65;3.63;;;;;;;17.13;94.37;100598.72;12206002;19;20007;-79
2023/06/24 01:24:01;;;;;;;5.88;3.70;;;;;;;17.08;94.34;100608.72;12223117;19;20499;-79
2023/06/24 01:28:42;;;;;;;6.43;4.20;;;;;;;17.07;95.31;100606.22;12203806;19;20031;-79
2023/06/24 01:33:25;;;;;;;6.63;4.13;;;;;;;17.04;96.09;100604.84;12171369;19;20006;-79
2023/06/24 01:38:03;;;;;;;5.75;3.80;;;;;;;17.03;96.49;100607.88;12226524;19;20354;-80
2023/06/24 01:42:41;;;;;;;4.93;3.55;;;;;;;16.99;96.62;100612.31;12222767;19;20031;-80
2023/06/24 01:46:50;;;;;;;7.18;4.28;;;;;;;16.97;96.87;100606.19;12195916;19;20034;-79
2023/06/24 01:50:59;;;;;;;7.55;4.50;;;;;;;16.95;97.39;100613.97;12222860;19;20011;-80
2023/06/24 01:55:06;;;;;;;7.25;4.15;;;;;;;16.91;97.44;100615.63;12201953;19;20559;-79
2023/06/24 01:59:10;;;;;;;6.78;4.60;;;;;;;16.89;98.07;100617.84;12224184;19;20011;-79
2023/06/24 02:03:13;;;;;;;8.20;4.50;;;;;;;16.85;99.13;100621.16;12221509;19;20011;-79
2023/06/24 02:07:17;;;;;;;10.77;6.25;;;;;;;16.85;99.71;100623.94;12203462;19;19998;-79
2023/06/24 02:11:22;;;;;;;7.45;4.60;;;;;;;16.79;99.91;100616.69;12220629;19;20035;-79
2023/06/24 02:15:28;;;;;;;10.63;4.40;;;;;;;16.75;100.00;100617.50;12223566;19;20018;-80
2023/06/24 02:19:30;;;;;;;6.68;4.05;;;;;;;16.76;100.00;100611.66;12194085;19;20044;-80
2023/06/24 02:23:34;;;;;;;7.95;4.55;;;;;;;16.74;100.00;100605.50;12223907;19;20019;-80
2023/06/24 02:27:39;;;;;;;8.73;4.57;;;;;;;16.72;100.00;100602.16;12223016;19;20010;-80
2023/06/24 02:31:41;;;;;;;9.25;4.57;;;;;;;16.69;100.00;100604.66;12199642;19;20715;-80
2023/06/24 02:35:45;;;;;;;7.07;4.68;;;;;;;16.68;100.00;100612.16;12223216;19;20023;-80
2023/06/24 02:39:47;;;;;;;9.07;5.38;;;;;;;16.66;100.00;100608.81;12218165;19;20002;-80
2023/06/24 02:43:49;;;;;;;8.67;5.60;;;;;;;16.62;100.00;100605.72;12198657;19;20491;-79
2023/06/24 02:47:52;;;;;;;6.60;4.70;;;;;;;16.59;100.00;100609.03;12218260;19;20010;-79
2023/06/24 02:51:54;;;;;;;6.95;4.47;;;;;;;16.57;100.00;100607.66;12217340;19;20011;-79
2023/06/24 02:55:57;;;;;;;9.23;4.63;;;;;;;16.54;100.00;100613.78;12196491;19;20095;-80
2023/06/24 02:59:59;;;;;;;6.55;4.43;;;;;;;16.50;100.00;100605.09;12217230;19;20022;-80
2023/06/24 03:04:13;;;;;;;7.32;4.65;;;;;;;16.49;100.00;100613.72;12197461;19;20388;-80
2023/06/24 03:08:16;;;;;;;6.78;4.68;;;;;;;16.48;100.00;100607.34;12217806;19;20006;-79
2023/06/24 03:12:57;;;;;;;;;;;;;;;;;;;;;
2023/06/24 03:17:33;;;;;;;6.93;4.35;;;;;;;16.49;100.00;100606.22;12194210;19;20089;-79
2023/06/24 03:26:40;;;;;;;7.95;5.20;;;;;;;16.52;100.00;100607.63;12112559;19;2020547;-79
2023/06/24 03:31:15;;;;;;;11.43;4.93;;;;;;;16.55;100.00;100616.25;12194684;19;20042;-78
2023/06/24 03:35:18;;;;;;;7.10;4.32;;;;;;;16.56;100.00;100625.44;12217058;19;20002;-79
2023/06/24 03:39:30;;;;;;;8.23;4.67;;;;;;;16.59;100.00;100619.34;12215042;19;20002;-79
2023/06/24 03:43:32;;;;;;;8.95;4.50;;;;;;;16.64;100.00;100622.16;12204779;19;20014;-79
2023/06/24 03:47:34;;;;;;;6.73;4.30;;;;;;;16.66;100.00;100619.94;12221298;19;20003;-80
2023/06/24 03:51:35;;;;;;;8.23;5.47;;;;;;;16.68;100.00;100622.44;12219279;19;20007;-80
2023/06/24 03:55:37;;;;;;;7.07;4.85;;;;;;;16.70;100.00;100623.84;12195548;19;20035;-79
2023/06/24 03:59:39;;;;;;;7.53;4.40;;;;;;;16.74;100.00;100626.94;12218862;19;20035;-79
2023/06/24 04:03:41;;;;;;;10.20;5.45;;;;;;;16.78;100.00;100626.16;12220747;19;20011;-79
2023/06/24 04:07:46;;;;;;;11.52;5.25;;;;;;;16.81;100.00;100625.63;12201401;19;20010;-79
2023/06/24 04:11:51;;;;;;;11.07;4.80;;;;;;;16.87;100.00;100631.22;12223592;19;20025;-80
2023/06/24 04:15:53;;;;;;;7.53;4.70;;;;;;;16.91;100.00;100635.13;12225477;19;20017;-79
2023/06/24 04:19:55;;;;;;;7.13;5.10;;;;;;;16.92;100.00;100634.84;12219494;19;20059;-78
2023/06/24 04:23:58;;;;;;;7.25;4.40;;;;;;;16.96;100.00;100632.38;12249597;19;20022;-80
2023/06/24 04:28:00;;;;;;;8.93;5.03;;;;;;;16.99;100.00;100649.34;12211301;19;20014;-80
2023/06/24 04:32:03;;;;;;;7.43;4.75;;;;;;;17.02;100.00;100647.97;12231587;19;20006;-80
2023/06/24 04:36:06;;;;;;;7.75;4.72;;;;;;;17.05;100.00;100639.06;12241230;19;20022;-80
2023/06/24 04:40:09;;;;;;;13.33;4.70;;;;;;;17.08;100.00;100644.09;12216431;19;20074;-80
2023/06/24 04:44:11;;;;;;;9.70;5.40;;;;;;;17.13;100.00;100648.84;12237296;19;20015;-80
2023/06/24 04:48:13;;;;;;;9.23;4.97;;;;;;;17.16;100.00;100649.13;12236548;19;20003;-80
2023/06/24 04:52:15;;;;;;;8.88;5.10;;;;;;;17.23;100.00;100660.03;12210252;19;20007;-81
2023/06/24 04:56:16;;;;;;;8.95;4.72;;;;;;;17.27;100.00;100664.75;12235515;19;20868;-80
2023/06/24 05:00:18;;;;;;;6.65;4.70;;;;;;;17.33;100.00;100662.00;12233392;19;20022;-80
2023/06/24 05:04:20;;;;;;;6.13;4.05;;;;;;;17.36;100.00;100659.50;12210253;19;20062;-81
2023/06/24 05:08:22;;;;;;;9.50;5.50;;;;;;;17.41;100.00;100661.47;12232910;19;20476;-79
2023/06/24 05:12:23;;;;;;;8.13;5.05;;;;;;;17.47;100.00;100657.59;12238146;19;20626;-80
2023/06/24 05:16:29;;;;;;;7.47;4.90;;;;;;;17.52;100.00;100660.38;12214763;19;20463;-80
2023/06/24 05:20:31;;;;;;;9.27;5.47;;;;;;;17.62;100.00;100671.53;12234777;19;20014;-80
2023/06/24 05:24:33;;;;;;;8.25;5.05;;;;;;;17.69;100.00;100679.63;12231156;19;20014;-81
2023/06/24 05:28:34;;;;;;;7.47;4.55;;;;;;;17.78;100.00;100683.56;12212093;19;20022;-81
2023/06/24 05:37:38;;;;;;;9.07;5.28;;;;;;;17.94;100.00;100688.06;12201224;19;20039;-80
2023/06/24 05:47:05;;;;;;;10.15;5.63;;;;;;;18.06;100.00;100679.44;12225846;19;20042;-80
2023/06/24 05:51:16;;;;;;;7.85;5.07;;;;;;;18.14;100.00;100681.63;12233012;19;20006;-79
2023/06/24 05:55:18;;;;;;;7.63;4.63;;;;;;;18.21;100.00;100687.78;12209596;19;20023;-78
2023/06/24 05:59:23;;;;;;;8.77;5.50;;;;;;;18.32;100.00;100685.00;12228713;19;20014;-79
2023/06/24 06:03:25;;;;;;;8.70;5.63;;;;;;;18.45;100.00;100690.84;12229408;19;20006;-79
2023/06/24 06:07:27;;;;;;;9.25;5.82;;;;;;;18.58;100.00;100695.00;12216065;19;20103;-80
2023/06/24 06:11:29;;;;;;;8.40;5.55;;;;;;;18.73;100.00;100698.88;12234873;19;20822;-80
2023/06/24 06:15:30;;;;;;;7.93;4.95;;;;;;;18.87;100.00;100694.41;12237539;19;20022;-80
2023/06/24 06:19:32;;;;;;;10.77;5.70;;;;;;;18.99;100.00;100696.91;12211786;19;20096;-79
2023/06/24 06:23:34;;;;;;;12.35;5.80;;;;;;;19.10;98.60;100696.56;12234355;19;20476;-81
2023/06/24 06:27:36;;;;;;;12.40;5.33;;;;;;;19.30;96.35;100694.81;12212079;19;20014;-80
2023/06/24 06:31:39;;;;;;;7.93;5.33;;;;;;;19.51;94.45;100688.00;12217456;19;20247;-80
2023/06/24 06:35:41;;;;;;;7.25;5.05;;;;;;;19.69;92.61;100692.13;12236931;19;20011;-78
2023/06/24 06:39:43;;;;;;;8.23;5.25;;;;;;;19.89;91.63;100693.09;12237283;19;20014;-79
2023/06/24 06:43:44;;;;;;;8.90;5.33;;;;;;;20.09;88.94;100700.50;12219777;19;20473;-79
2023/06/24 06:47:47;;;;;;;7.88;5.47;;;;;;;20.33;88.44;100695.81;12235890;19;20075;-80
2023/06/24 06:51:55;;;;;;;7.13;4.85;;;;;;;20.59;87.46;100692.81;12234254;19;20353;-80
2023/06/24 06:55:58;;;;;;;7.88;5.03;;;;;;;20.78;85.82;100692.91;12212476;19;20028;-79
2023/06/24 07:00:01;;;;;;;7.93;5.60;;;;;;;21.03;83.54;100680.53;12237173;19;20022;-80
2023/06/24 07:04:05;;;;;;;7.00;4.88;;;;;;;21.27;80.80;100687.00;12214431;19;20015;-80
2023/06/24 07:08:07;;;;;;;8.35;5.18;;;;;;;21.50;79.42;100685.28;12234475;19;20074;-81
2023/06/24 07:12:09;;;;;;;8.63;4.63;;;;;;;21.70;77.57;100684.16;12236571;19;20014;-80
2023/06/24 07:16:10;;;;;;;8.87;4.80;;;;;;;21.91;75.10;100681.06;12211451;19;20020;-79
2023/06/24 07:20:12;;;;;;;9.00;5.40;;;;;;;22.14;72.79;100677.31;12235145;19;20010;-80
2023/06/24 07:24:14;;;;;;;10.40;4.73;;;;;;;22.38;71.29;100682.81;12231257;19;20434;-80
2023/06/24 07:28:16;;;;;;;6.37;4.63;;;;;;;22.63;68.53;100675.88;12211606;19;20036;-80
2023/06/24 07:32:18;;;;;;;8.17;4.73;;;;;;;22.88;67.21;100679.38;12228879;19;20014;-79
2023/06/24 07:36:20;;;;;;;7.30;4.35;;;;;;;23.04;65.67;100677.13;12224208;19;20255;-80
2023/06/24 07:40:23;;;;;;;7.70;4.97;;;;;;;23.11;64.22;100669.94;12199032;19;20015;-81
2023/06/24 07:44:25;;;;;;;5.97;4.60;;;;;;;23.32;64.79;100678.78;12225086;19;20038;-78
2023/06/24 07:48:27;;;;;;;7.03;4.87;;;;;;;23.51;63.28;100675.81;12224204;19;20007;-79
2023/06/24 07:52:29;;;;;;;7.10;4.72;;;;;;;23.75;63.28;100671.94;12203384;19;20014;-79
2023/06/24 07:56:31;;;;;;;7.40;4.87;;;;;;;24.02;61.98;100671.81;12222638;19;20003;-79
2023/06/24 08:00:33;;;;;;;7.68;4.45;;;;;;;24.27;59.35;100678.81;12230212;19;20006;-77
2023/06/24 08:04:38;;;;;;;8.05;4.75;;;;;;;24.53;58.08;100681.78;12226936;19;20006;-78
2023/06/24 08:08:40;;;;;;;8.45;4.22;;;;;;;24.82;57.31;100682.44;12217093;19;20017;-77
2023/06/24 08:12:43;;;;;;;6.03;4.30;;;;;;;25.00;57.06;100679.38;12220104;19;20014;-76
2023/06/24 08:16:45;;;;;;;6.35;5.13;;;;;;;25.12;55.60;100673.09;12195471;19;20014;-77
2023/06/24 08:20:47;;;;;;;7.30;4.40;;;;;;;25.14;52.54;100675.66;12210961;19;20011;-78
2023/06/24 08:24:49;;;;;;;8.10;4.70;;;;;;;25.30;54.54;100668.38;12217826;19;20087;-78
2023/06/24 08:28:53;;;;;;;7.53;4.50;;;;;;;25.49;53.23;100670.91;12192310;19;20370;-78
2023/06/24 08:32:55;;;;;;;8.48;4.03;;;;;;;25.79;52.51;100674.78;12213889;19;20023;-78
2023/06/24 08:36:57;;;;;;;7.20;4.22;;;;;;;26.00;51.56;100666.50;12215516;19;20020;-77
2023/06/24 08:40:59;;;;;;;7.68;4.60;;;;;;;26.22;51.17;100667.47;12186995;19;20031;-78
2023/06/24 08:45:01;;;;;;;6.93;4.35;;;;;;;26.30;49.56;100664.63;12212924;19;20007;-77
2023/06/24 08:49:13;;;;;;;7.43;4.40;;;;;;;26.46;49.31;100669.75;12194404;19;20022;-79
2023/06/24 08:53:18;;;;;;;8.38;4.80;;;;;;;26.53;47.93;100670.94;12214763;19;20669;-78
2023/06/24 08:57:19;;;;;;;7.80;5.03;;;;;;;26.77;45.95;100677.97;12213424;19;20011;-77
2023/06/24 09:01:22;;;;;;;7.15;4.82;;;;;;;26.87;45.36;100662.66;12192311;19;20007;-78
2023/06/24 09:05:25;;;;;;;7.55;4.32;;;;;;;26.94;45.91;100666.59;12214329;19;20489;-78
2023/06/24 09:09:28;;;;;;;6.93;4.70;;;;;;;27.06;45.61;100665.88;12215599;19;20078;-79
2023/06/24 09:13:36;;;;;;;6.55;4.60;;;;;;;27.34;43.94;100660.63;12194681;19;20082;-78
2023/06/24 09:17:48;;;;;;;6.75;4.82;;;;;;;27.67;43.18;100655.03;12211318;19;20019;-77
2023/06/24 09:21:54;;;;;;;9.18;4.93;;;;;;;27.97;43.76;100648.50;12223405;19;20492;-78
2023/06/24 09:25:57;;;;;;;9.13;5.18;;;;;;;27.97;43.01;100632.34;12200380;19;20014;-78
2023/06/24 09:30:00;;;;;;;9.00;5.35;;;;;;;28.13;42.34;100639.00;12224586;19;20439;-78
2023/06/24 09:34:01;;;;;;;7.63;5.30;;;;;;;28.31;41.63;100621.81;12205068;19;20016;-78
2023/06/24 09:38:04;;;;;;;;;;;;;;;28.30;40.42;100623.00;12223814;19;20015;-77
2023/06/24 09:42:07;;;;;;;5.63;3.70;;;;;;;28.45;40.96;100616.69;12219879;19;19911;-78
2023/06/24 09:46:09;;;;;;;7.00;4.22;;;;;;;28.43;39.76;100615.38;12198571;19;20027;-78
2023/06/24 09:50:12;;;;;;;6.07;4.32;;;;;;;28.69;39.50;100606.56;12236264;19;20026;-78
2023/06/24 09:54:15;;;;;;;10.43;5.35;;;;;;;29.05;38.50;100603.75;12222768;19;20086;-78
2023/06/24 09:58:18;;;;;;;5.97;4.15;;;;;;;29.45;37.24;100593.66;12201607;19;20006;-77
2023/06/24 10:02:21;;;;;;;7.53;4.63;;;;;;;29.57;36.52;100585.09;12221377;19;20026;-78
2023/06/24 10:06:25;;;;;;;9.75;3.90;;;;;;;29.87;36.05;100585.59;12219269;19;20010;-77
2023/06/24 10:10:27;;;;;;;6.22;3.75;;;;;;;30.02;35.71;100577.50;12198916;19;20100;-77
2023/06/24 10:14:30;;;;;;;5.28;3.90;;;;;;;29.88;35.11;100572.22;12220686;19;20066;-78
2023/06/24 10:18:37;;;;;;;5.88;4.10;;;;;;;29.76;35.99;100570.25;12218271;19;20007;-77
2023/06/24 10:22:45;;;;;;;6.82;4.20;;;;;;;30.07;35.45;100563.00;12213401;19;19998;-78
2023/06/24 10:26:48;;;;;;;6.65;4.43;;;;;;;30.11;35.43;100561.09;12221146;19;20374;-77
2023/06/24 10:30:56;;;;;;;7.18;5.15;;;;;;;30.11;34.96;100555.41;12215342;19;20035;-76
2023/06/24 10:34:58;;;;;;;7.03;5.00;;;;;;;29.92;35.44;100551.22;12196074;19;20102;-77
2023/06/24 10:39:01;;;;;;;6.72;4.15;;;;;;;29.43;35.68;100556.28;12216575;19;20829;-76
2023/06/24 10:43:25;;;;;;;6.43;5.13;;;;;;;29.14;36.41;100538.34;12212726;19;20015;-77
2023/06/24 10:47:28;;;;;;;4.75;3.70;;;;;;;29.29;36.19;100540.44;12193852;19;20006;-77
2023/06/24 10:51:29;;;;;;;7.68;3.88;;;;;;;30.00;34.91;100532.38;12217273;19;20020;-78
2023/06/24 10:55:32;;;;;;;5.20;3.58;;;;;;;30.34;34.41;100542.28;12238889;19;20006;-77
2023/06/24 10:59:35;;;;;;;5.45;3.60;;;;;;;29.79;34.34;100528.94;12161154;19;20118;-78
2023/06/24 11:03:39;;;;;;;6.30;4.28;;;;;;;29.17;35.53;100525.47;12217962;19;20090;-78
2023/06/24 11:07:43;;;;;;;6.55;4.00;;;;;;;28.75;35.96;100525.75;12214903;19;20532;-78
2023/06/24 11:11:46;;;;;;;5.68;3.80;;;;;;;28.74;36.72;100518.44;12234319;19;21641;-79
2023/06/24 11:15:48;;;;;;;6.55;4.43;;;;;;;29.49;35.56;100509.41;12215187;19;20018;-77
2023/06/24 11:19:52;;;;;;;5.30;3.78;;;;;;;30.22;34.20;100511.06;12190136;19;20010;-78
2023/06/24 11:23:54;;;;;;;6.25;4.03;;;;;;;30.81;33.47;100500.78;12214422;19;20010;-79
2023/06/24 11:27:57;;;;;;;;;;;;;;;30.99;32.48;100486.94;12216945;19;20011;-78
2023/06/24 11:32:01;;;;;;;;;;;;;;;31.24;32.48;100491.19;12194626;19;19932;-78
2023/06/24 11:36:09;;;;;;;5.95;4.03;;;;;;;31.58;32.06;100488.66;12217556;19;19911;-79
2023/06/24 11:40:19;;;;;;;7.07;4.15;;;;;;;32.41;30.77;100485.31;12210504;19;20594;-79
2023/06/24 11:44:24;;;;;;;5.47;4.35;;;;;;;32.87;29.53;100479.53;12185898;19;20471;-79
2023/06/24 11:48:28;;;;;;;7.55;4.80;;;;;;;33.05;29.12;100486.38;12220871;19;20027;-78
2023/06/24 11:52:40;;;;;;;5.50;4.00;;;;;;;33.39;28.57;100477.00;12256951;19;20014;-79
2023/06/24 11:56:44;;;;;;;6.40;4.18;;;;;;;33.04;28.08;100476.13;12210190;19;20464;-78
2023/06/24 12:00:48;;;;;;;5.55;4.03;;;;;;;31.94;29.62;100475.94;12220284;19;20007;-79
2023/06/24 12:04:50;;;;;;;6.43;4.20;;;;;;;31.83;29.80;100468.38;12199766;19;20011;-80
2023/06/24 12:08:53;;;;;;;5.32;3.83;;;;;;;31.27;30.81;100467.66;12218270;19;20543;-76
2023/06/24 12:12:55;;;;;;;;;;;;;;;30.54;31.77;100471.25;12215863;19;20006;-79
2023/06/24 12:16:57;;;;;;;6.30;3.80;;;;;;;29.94;32.75;100472.16;12193926;19;20271;-79
2023/06/24 12:21:00;;;;;;;8.38;4.07;;;;;;;30.02;33.32;100463.81;12215796;19;20003;-80
2023/06/24 12:25:02;;;;;;;4.95;3.83;;;;;;;30.16;32.58;100458.50;12214944;19;20021;-79
2023/06/24 12:29:07;;;;;;;5.55;4.20;;;;;;;29.90;33.13;100445.66;12193576;19;20007;-79
2023/06/24 12:33:09;;;;;;;5.10;3.78;;;;;;;31.74;30.74;100446.66;12211025;19;20670;-78
2023/06/24 12:37:10;;;;;;;;;;;;;;;33.51;29.33;100433.91;12220520;19;20432;-79
2023/06/24 12:41:12;;;;;;;5.75;4.80;;;;;;;34.89;26.04;100439.22;12194895;19;19914;-79
2023/06/24 12:45:14;;;;;;;6.60;4.80;;;;;;;35.98;26.39;100429.78;12207978;19;20040;-79
2023/06/24 12:49:16;;;;;;;5.07;3.83;;;;;;;37.22;24.74;100428.00;12210858;19;19999;-77
2023/06/24 12:53:21;;;;;;;4.25;3.58;;;;;;;38.53;22.20;100413.16;12188200;19;20010;-77
2023/06/24 12:57:23;;;;;;;4.47;4.03;;;;;;;39.60;21.78;100408.16;12220604;19;20006;-76
2023/06/24 13:01:25;;;;;;;6.32;4.75;;;;;;;40.11;20.31;100400.34;12215645;19;20019;-77
2023/06/24 13:05:27;;;;;;;4.95;4.22;;;;;;;38.42;21.89;100401.75;12196874;19;20006;-77
2023/06/24 13:09:29;;;;;;;6.38;4.50;;;;;;;36.63;23.07;100408.47;12219536;19;20405;-77
2023/06/24 13:13:31;;;;;;;4.35;3.95;;;;;;;35.13;24.32;100413.97;12212365;19;20077;-78
2023/06/24 13:17:32;;;;;;;6.13;4.50;;;;;;;33.73;25.36;100412.94;12186805;19;20066;-78
2023/06/24 13:21:35;;;;;;;4.53;3.92;;;;;;;32.75;26.17;100402.72;12219927;19;20500;-76
2023/06/24 13:25:37;;;;;;;4.78;3.95;;;;;;;32.05;27.29;100396.34;12216442;19;20511;-78
2023/06/24 13:29:39;;;;;;;5.05;4.38;;;;;;;31.40;28.02;100397.16;12197177;19;20014;-77
2023/06/24 13:33:41;;;;;;;;;;;;;;;30.87;28.33;100391.97;12218125;19;20028;-77
2023/06/24 13:37:43;;;;;;;6.70;3.72;;;;;;;30.68;28.62;100389.09;12187404;19;19903;-77
2023/06/24 13:41:45;;;;;;;7.20;4.70;;;;;;;32.31;27.33;100377.59;12215628;19;20410;-77
2023/06/24 13:45:47;;;;;;;;;;;;;;;34.78;25.15;100377.41;12211068;19;20007;-77
2023/06/24 13:49:50;;;;;;;7.55;5.28;;;;;;;37.12;23.89;100374.28;12196593;19;19922;-78
2023/06/24 13:53:56;;;;;;;6.95;4.85;;;;;;;37.32;23.30;100363.91;12212407;19;20524;-78
2023/06/24 13:57:58;;;;;;;6.38;4.60;;;;;;;38.08;22.83;100365.03;12218423;19;20361;-77
2023/06/24 14:02:00;;;;;;;5.00;4.47;;;;;;;39.10;21.53;100356.94;12195475;19;20010;-77
2023/06/24 14:06:03;;;;;;;5.18;4.32;;;;;;;39.53;20.64;100359.22;12216356;19;20640;-78
2023/06/24 14:10:06;;;;;;;5.10;4.50;;;;;;;40.86;19.63;100351.94;12219103;19;20007;-78
2023/06/24 14:14:09;;;;;;;5.22;4.35;;;;;;;42.42;17.76;100354.44;12196556;19;20010;-78
2023/06/24 14:18:10;;;;;;;5.00;4.20;;;;;;;42.71;17.49;100337.84;12220814;19;20460;-78
2023/06/24 14:22:12;;;;;;;4.50;4.10;;;;;;;43.52;16.70;100346.63;12219449;19;20405;-78
2023/06/24 14:26:14;;;;;;;5.38;4.57;;;;;;;43.06;16.93;100331.50;12196170;19;20102;-78
2023/06/24 14:30:16;;;;;;;5.18;4.40;;;;;;;40.72;18.85;100335.72;12218658;19;20017;-78
2023/06/24 14:34:18;;;;;;;5.22;4.72;;;;;;;41.82;17.85;100332.38;12210763;19;20007;-78
2023/06/24 14:38:21;;;;;;;5.43;4.93;;;;;;;42.58;17.60;100330.41;12227300;19;20078;-78
2023/06/24 14:42:24;;;;;;;5.05;4.50;;;;;;;43.19;17.10;100324.47;12198847;19;20026;-78
2023/06/24 14:46:27;;;;;;;4.75;4.18;;;;;;;43.68;16.61;100317.50;12173795;19;19999;-79
2023/06/24 14:50:29;;;;;;;5.22;4.57;;;;;;;44.41;15.95;100302.13;12199737;19;20011;-78
2023/06/24 14:54:31;;;;;;;5.15;4.32;;;;;;;44.69;15.29;100300.25;12201635;19;20015;-78
2023/06/24 14:58:33;;;;;;;4.95;3.92;;;;;;;44.63;15.69;100308.75;12179023;19;20425;-78
2023/06/24 15:02:35;;;;;;;4.63;4.07;;;;;;;42.08;16.63;100304.44;12199916;19;20010;-78
2023/06/24 15:06:37;;;;;;;6.03;4.75;;;;;;;40.47;17.75;100301.56;12197908;19;20082;-78
2023/06/24 15:10:38;;;;;;;5.82;4.68;;;;;;;40.04;18.04;100291.63;12182645;19;20486;-78
2023/06/24 15:14:40;;;;;;;4.82;4.35;;;;;;;39.88;18.78;100291.50;12202230;19;20077;-79
2023/06/24 15:18:47;;;;;;;6.40;4.72;;;;;;;40.31;18.56;100287.84;12201686;19;20002;-78
2023/06/24 15:22:49;;;;;;;7.78;4.80;;;;;;;39.71;18.87;100281.88;12178550;19;20021;-77
2023/06/24 15:26:51;;;;;;;6.35;4.85;;;;;;;38.00;20.19;100282.91;12207942;19;20103;-78
2023/06/24 15:30:53;;;;;;;5.28;4.78;;;;;;;36.12;22.39;100292.13;12216687;19;20010;-78
2023/06/24 15:34:54;;;;;;;5.38;4.85;;;;;;;34.82;23.53;100272.31;12191011;19;20074;-77
2023/06/24 15:38:57;;;;;;;4.70;4.30;;;;;;;33.77;24.27;100282.31;12211365;19;20060;-77
2023/06/24 15:42:59;;;;;;;6.90;4.82;;;;;;;33.04;25.58;100273.44;12208145;19;20026;-77
2023/06/24 15:47:01;;;;;;;6.70;5.72;;;;;;;32.69;25.25;100268.13;12201477;19;20010;-77
2023/06/24 15:51:03;;;;;;;6.22;4.82;;;;;;;32.21;25.90;100259.31;12239112;19;20017;-78
2023/06/24 15:55:05;;;;;;;5.95;4.32;;;;;;;32.07;25.98;100251.41;12215251;19;20334;-78
2023/06/24 15:59:07;;;;;;;6.40;4.28;;;;;;;32.18;26.58;100255.19;12201463;19;20030;-78
2023/06/24 16:03:09;;;;;;;5.32;4.18;;;;;;;31.81;26.94;100248.53;12224550;19;20010;-78
2023/06/24 16:07:11;;;;;;;5.82;4.35;;;;;;;31.43;26.98;100251.16;12209239;19;20052;-79
2023/06/24 16:11:13;;;;;;;;;;;;;;;31.07;27.60;100247.66;12192031;19;20069;-79
2023/06/24 16:15:15;;;;;;;6.93;5.03;;;;;;;30.78;27.97;100251.13;12216419;19;19932;-78
2023/06/24 16:19:17;;;;;;;6.28;4.43;;;;;;;30.45;28.27;100254.53;12232660;19;20022;-78
2023/06/24 16:23:18;;;;;;;6.10;3.97;;;;;;;30.28;28.95;100244.41;12219738;19;20011;-77
2023/06/24 16:27:20;;;;;;;6.78;4.60;;;;;;;30.36;28.81;100241.34;12225092;19;20006;-78
2023/06/24 16:31:22;;;;;;;5.80;4.22;;;;;;;30.17;29.12;100242.13;12190814;19;20116;-78
2023/06/24 16:35:24;;;;;;;;;;;;;;;29.91;29.42;100248.44;12213917;19;20011;-78
2023/06/24 16:39:26;;;;;;;6.80;4.60;;;;;;;29.80;29.71;100247.34;12212431;19;19906;-79
2023/06/24 16:43:28;;;;;;;7.00;4.65;;;;;;;29.50;29.49;100244.97;12195454;19;20018;-76
2023/06/24 16:47:29;;;;;;;5.95;4.55;;;;;;;29.41;30.31;100240.69;12210410;19;20011;-79
2023/06/24 16:51:34;;;;;;;6.57;4.43;;;;;;;29.40;30.14;100241.88;12214061;19;20093;-79
2023/06/24 16:55:37;;;;;;;5.40;4.20;;;;;;;29.40;30.08;100247.56;12194201;19;20033;-78
2023/06/24 16:59:39;;;;;;;5.50;4.40;;;;;;;29.27;30.19;100241.97;12216960;19;20006;-78
2023/06/24 17:03:42;;;;;;;11.57;6.70;;;;;;;29.11;30.86;100241.13;12217200;19;20131;-80
2023/06/24 17:07:44;;;;;;;5.97;4.30;;;;;;;29.07;30.52;100238.22;12193522;19;20032;-79
2023/06/24 17:11:45;;;;;;;6.07;4.22;;;;;;;29.00;30.82;100235.16;12217156;19;20026;-78
2023/06/24 17:15:47;;;;;;;5.82;4.30;;;;;;;28.98;31.06;100231.03;12220249;19;20018;-79
2023/06/24 17:19:49;;;;;;;6.90;4.00;;;;;;;28.93;31.12;100228.47;12196093;19;20384;-78
2023/06/24 17:23:50;;;;;;;6.20;4.63;;;;;;;28.84;31.21;100229.44;12212837;19;20014;-78
2023/06/24 17:27:52;;;;;;;5.68;4.28;;;;;;;28.78;31.47;100230.09;12208042;19;20011;-79
2023/06/24 17:31:54;;;;;;;;;;;;;;;28.68;31.47;100233.47;12188270;19;20006;-77
2023/06/24 17:35:56;;;;;;;6.43;4.32;;;;;;;28.58;31.70;100232.75;12209171;19;20004;-79
2023/06/24 17:39:58;;;;;;;6.55;4.50;;;;;;;28.54;32.03;100229.00;12210875;19;20098;-79
2023/06/24 17:44:00;;;;;;;6.82;4.03;;;;;;;28.49;32.35;100232.09;12194744;19;20468;-79
2023/06/24 17:48:02;;;;;;;6.78;4.32;;;;;;;28.47;32.60;100233.66;12215008;19;20014;-79
2023/06/24 17:52:04;;;;;;;5.80;4.40;;;;;;;28.41;32.49;100227.44;12213620;19;20014;-78
2023/06/24 17:56:06;;;;;;;9.13;4.82;;;;;;;28.32;32.51;100224.72;12202479;19;21367;-77
2023/06/24 18:00:09;;;;;;;6.32;4.50;;;;;;;28.20;33.30;100224.75;12220699;19;20080;-78
2023/06/24 18:04:10;;;;;;;8.13;4.97;;;;;;;28.14;33.55;100229.03;12226058;19;20089;-78
2023/06/24 18:08:12;;;;;;;6.05;4.75;;;;;;;28.04;33.42;100224.66;12200135;19;20002;-79
2023/06/24 18:12:14;;;;;;;6.40;4.30;;;;;;;27.92;33.81;100217.00;12221741;19;20011;-77
2023/06/24 18:16:16;;;;;;;6.05;4.28;;;;;;;27.81;34.47;100215.03;12224034;19;20021;-77
2023/06/24 18:20:18;;;;;;;7.22;4.55;;;;;;;27.71;34.45;100210.66;12199961;19;20025;-78
2023/06/24 18:24:20;;;;;;;7.32;4.47;;;;;;;27.58;34.66;100207.03;12220044;19;20520;-79
2023/06/24 18:28:22;;;;;;;8.35;5.22;;;;;;;27.42;35.58;100209.72;12195505;19;20313;-79
2023/06/24 18:32:24;;;;;;;5.55;4.47;;;;;;;27.26;35.97;100201.13;12213366;19;20393;-78
2023/06/24 18:36:25;;;;;;;5.32;4.03;;;;;;;27.12;36.93;100206.25;12209013;19;20015;-78
2023/06/24 18:40:27;;;;;;;5.82;4.00;;;;;;;26.94;37.56;100210.47;12197154;19;20116;-78
2023/06/24 18:44:29;;;;;;;5.28;4.20;;;;;;;26.75;37.99;100211.84;12217765;19;20003;-79
2023/06/24 18:48:31;;;;;;;5.72;4.40;;;;;;;26.54;38.58;100202.59;12212875;19;20027;-78
2023/06/24 18:52:33;;;;;;;;;;;;;;;26.29;38.85;100207.28;12195391;19;20011;-78
2023/06/24 18:56:35;;;;;;;8.18;4.57;;;;;;;26.05;39.85;100208.81;12216595;19;20009;-79
2023/06/24 19:00:37;;;;;;;7.63;4.65;;;;;;;25.82;40.56;100211.16;12217533;19;20077;-78